createdAt,value
2019-03-23T00:00:50.525Z,68.83
2019-03-23T00:03:21.331Z,71.60
2019-03-23T00:05:51.974Z,68.57
2019-03-23T00:08:22.002Z,70.27
2019-03-23T00:10:52.419Z,71.87
2019-03-23T00:13:22.483Z,70.97
2019-03-23T00:15:53.030Z,69.20
2019-03-23T00:18:23.143Z,71.17
2019-03-23T00:20:52.844Z,70.47
2019-03-23T00:23:22.515Z,70.87
2019-03-23T00:25:52.159Z,73.60
2019-03-23T00:28:22.624Z,72.67
2019-03-23T00:30:52.735Z,73.83
2019-03-23T00:33:22.916Z,74.87
2019-03-23T00:35:52.830Z,72.60
2019-03-23T00:38:22.739Z,72.47
2019-03-23T00:40:52.457Z,73.80
2019-03-23T00:43:22.687Z,77.90
2019-03-23T00:45:53.106Z,77.63
2019-03-23T00:48:23.186Z,76.77
2019-03-23T00:50:53.259Z,77.37
2019-03-23T00:53:23.165Z,77.90
2019-03-23T00:55:53.238Z,76.57
2019-03-23T00:58:23.198Z,78.57
2019-03-23T01:00:53.525Z,79.73
2019-03-23T01:03:23.639Z,77.23
2019-03-23T01:05:54.006Z,79.73
2019-03-23T01:08:23.959Z,80.17
2019-03-23T01:10:53.617Z,78.63
2019-03-23T01:13:23.711Z,83.23
2019-03-23T01:15:54.046Z,81.77
2019-03-23T01:18:24.040Z,79.63
2019-03-23T01:20:54.921Z,79.37
2019-03-23T01:23:25.104Z,78.60
2019-03-23T01:25:54.855Z,79.07
2019-03-23T01:28:25.521Z,82.20
2019-03-23T01:30:55.915Z,86.83
2019-03-23T01:33:26.066Z,87.47
2019-03-23T01:35:56.111Z,84.33
2019-03-23T01:38:25.764Z,85.20
2019-03-23T01:40:56.129Z,86.27
2019-03-23T01:43:26.050Z,86.57
2019-03-23T01:45:55.975Z,86.40
2019-03-23T01:48:25.920Z,85.87
2019-03-23T01:50:55.614Z,87.67
2019-03-23T01:53:25.653Z,84.70
2019-03-23T01:55:55.983Z,86.13
2019-03-23T01:58:25.659Z,83.90
2019-03-23T02:00:55.487Z,84.73
2019-03-23T02:03:25.422Z,86.10
2019-03-23T02:05:55.455Z,82.93
2019-03-23T02:08:25.504Z,83.03
2019-03-23T02:10:55.399Z,81.00
2019-03-23T02:13:25.485Z,83.80
2019-03-23T02:15:55.379Z,82.03
2019-03-23T02:18:25.016Z,80.43
2019-03-23T02:20:55.104Z,83.60
2019-03-23T02:23:25.242Z,92.70
2019-03-23T02:25:55.364Z,89.97
2019-03-23T02:28:25.058Z,96.43
2019-03-23T02:30:55.246Z,95.10
2019-03-23T02:33:25.720Z,103.20
2019-03-23T02:35:55.455Z,122.37
2019-03-23T02:38:25.768Z,108.43
2019-03-23T02:40:55.543Z,118.17
2019-03-23T02:43:25.745Z,102.87
2019-03-23T02:45:55.871Z,94.43
2019-03-23T02:48:25.555Z,95.93
2019-03-23T02:50:55.659Z,80.17
2019-03-23T02:53:25.588Z,81.67
2019-03-23T02:55:55.519Z,67.80
2019-03-23T02:58:25.445Z,67.27
2019-03-23T03:00:55.766Z,65.57
2019-03-23T03:03:26.035Z,66.30
2019-03-23T03:05:55.663Z,62.27
2019-03-23T03:08:25.668Z,57.47
2019-03-23T03:10:55.610Z,58.97
2019-03-23T03:13:25.638Z,55.83
2019-03-23T03:15:55.360Z,59.33
2019-03-23T03:18:25.315Z,63.97
2019-03-23T03:20:54.951Z,69.93
2019-03-23T03:23:24.710Z,60.83
2019-03-23T03:25:54.503Z,61.77
2019-03-23T03:28:24.971Z,60.60
2019-03-23T03:30:55.549Z,64.37
2019-03-23T03:33:25.261Z,58.40
2019-03-23T03:35:54.985Z,63.23
2019-03-23T03:38:24.568Z,56.57
2019-03-23T03:40:54.855Z,61.17
2019-03-23T03:43:24.538Z,66.13
2019-03-23T03:45:54.179Z,57.07
2019-03-23T03:48:25.239Z,53.23
2019-03-23T03:50:55.602Z,54.00
2019-03-23T03:53:25.666Z,52.63
2019-03-23T03:55:55.640Z,53.50
2019-03-23T03:58:25.907Z,53.83
2019-03-23T04:00:55.532Z,50.80
2019-03-23T04:03:25.199Z,48.33
2019-03-23T04:05:55.111Z,45.93
2019-03-23T04:08:25.163Z,44.03
2019-03-23T04:10:54.902Z,44.43
2019-03-23T04:13:24.541Z,41.07
2019-03-23T04:15:54.181Z,42.90
2019-03-23T04:18:24.659Z,41.43
2019-03-23T04:20:54.702Z,39.87
2019-03-23T04:23:24.778Z,39.57
2019-03-23T04:25:54.435Z,40.40
2019-03-23T04:28:24.190Z,38.63
2019-03-23T04:30:54.397Z,39.90
2019-03-23T04:33:25.427Z,38.50
2019-03-23T04:35:55.149Z,38.70
2019-03-23T04:38:26.112Z,38.73
2019-03-23T04:40:55.765Z,37.77
2019-03-23T04:43:25.942Z,38.10
2019-03-23T04:45:55.723Z,36.57
2019-03-23T04:48:25.704Z,35.87
2019-03-23T04:50:55.750Z,36.50
2019-03-23T04:53:26.234Z,35.97
2019-03-23T04:55:57.260Z,36.00
2019-03-23T04:58:27.270Z,37.33
2019-03-23T05:00:57.664Z,36.40
2019-03-23T05:03:27.660Z,37.53
2019-03-23T05:05:57.987Z,37.20
2019-03-23T05:08:33.298Z,37.67
2019-03-23T05:11:00.544Z,35.63
2019-03-23T05:13:30.667Z,37.33
2019-03-23T05:16:00.320Z,35.40
2019-03-23T05:18:30.267Z,38.60
2019-03-23T05:20:59.962Z,36.50
2019-03-23T05:23:30.584Z,36.27
2019-03-23T05:26:00.275Z,36.27
2019-03-23T05:28:31.074Z,37.67
2019-03-23T05:31:00.824Z,38.00
2019-03-23T05:33:30.929Z,37.87
2019-03-23T05:36:00.651Z,36.53
2019-03-23T05:38:30.331Z,38.13
2019-03-23T05:41:00.266Z,36.10
2019-03-23T05:43:30.404Z,40.20
2019-03-23T05:46:00.391Z,39.20
2019-03-23T05:48:30.303Z,39.17
2019-03-23T05:50:59.970Z,40.30
2019-03-23T05:53:29.956Z,40.80
2019-03-23T05:55:59.754Z,42.33
2019-03-23T05:58:29.888Z,40.93
2019-03-23T06:01:00.062Z,43.87
2019-03-23T06:03:30.622Z,44.70
2019-03-23T06:06:00.558Z,51.67
2019-03-23T06:08:31.027Z,55.83
2019-03-23T06:11:00.717Z,45.70
2019-03-23T06:13:30.835Z,46.27
2019-03-23T06:16:01.161Z,43.77
2019-03-23T06:18:31.170Z,42.27
2019-03-23T06:21:01.520Z,46.87
2019-03-23T06:23:31.556Z,44.10
2019-03-23T06:26:01.679Z,43.00
2019-03-23T06:28:32.087Z,42.60
2019-03-23T06:31:02.167Z,36.90
2019-03-23T06:33:32.791Z,37.97
2019-03-23T06:36:03.151Z,38.13
2019-03-23T06:38:33.767Z,37.77
2019-03-23T06:41:04.261Z,35.40
2019-03-23T06:43:34.544Z,34.73
2019-03-23T06:46:04.230Z,32.00
2019-03-23T06:48:34.731Z,34.43
2019-03-23T06:51:04.437Z,35.10
2019-03-23T06:53:34.916Z,36.27
2019-03-23T06:56:04.921Z,35.30
2019-03-23T06:58:34.655Z,32.70
2019-03-23T07:01:04.637Z,34.57
2019-03-23T07:03:34.308Z,36.50
2019-03-23T07:06:04.426Z,38.43
2019-03-23T07:08:35.610Z,35.90
2019-03-23T07:11:05.358Z,37.37
2019-03-23T07:13:35.867Z,37.17
2019-03-23T07:16:05.614Z,37.73
2019-03-23T07:18:35.361Z,41.40
2019-03-23T07:21:05.285Z,38.80
2019-03-23T07:23:35.032Z,36.70
2019-03-23T07:26:05.113Z,37.07
2019-03-23T07:28:35.894Z,37.87
2019-03-23T07:31:05.581Z,35.90
2019-03-23T07:33:36.278Z,35.73
2019-03-23T07:36:05.939Z,38.40
2019-03-23T07:38:36.008Z,37.20
2019-03-23T07:41:06.243Z,34.97
2019-03-23T07:43:36.314Z,34.60
2019-03-23T07:46:06.447Z,38.17
2019-03-23T07:48:36.177Z,36.43
2019-03-23T07:51:06.255Z,34.40
2019-03-23T07:53:35.893Z,31.50
2019-03-23T07:56:05.882Z,33.40
2019-03-23T07:58:36.075Z,32.20
2019-03-23T08:01:06.221Z,34.70
2019-03-23T08:03:35.989Z,31.90
2019-03-23T08:06:06.093Z,33.33
2019-03-23T08:08:36.149Z,35.67
2019-03-23T08:11:06.478Z,32.60
2019-03-23T08:13:36.398Z,33.27
2019-03-23T08:16:06.567Z,34.53
2019-03-23T08:18:36.490Z,33.43
2019-03-23T08:21:06.180Z,32.27
2019-03-23T08:23:36.396Z,31.23
2019-03-23T08:26:06.429Z,31.67
2019-03-23T08:28:36.398Z,30.30
2019-03-23T08:31:06.493Z,29.40
2019-03-23T08:33:36.513Z,30.27
2019-03-23T08:36:06.170Z,29.40
2019-03-23T08:38:36.373Z,30.53
2019-03-23T08:41:06.268Z,31.37
2019-03-23T08:43:36.785Z,30.97
2019-03-23T08:46:06.496Z,26.90
2019-03-23T08:48:37.157Z,26.57
2019-03-23T08:51:07.198Z,29.03
2019-03-23T08:53:37.241Z,28.47
2019-03-23T08:56:06.875Z,28.17
2019-03-23T08:58:34.519Z,27.90
2019-03-23T09:01:05.210Z,27.70
2019-03-23T09:03:35.693Z,28.93
2019-03-23T09:06:05.726Z,29.50
2019-03-23T09:08:35.552Z,27.07
2019-03-23T09:11:06.684Z,29.57
2019-03-23T09:13:40.780Z,26.37
2019-03-23T15:42:29.547Z,20.87
2019-03-23T15:45:00.619Z,22.57
2019-03-23T15:47:30.703Z,20.70
2019-03-23T15:50:00.755Z,23.10
2019-03-23T15:52:32.809Z,22.37
2019-03-23T15:55:03.403Z,23.97
2019-03-23T15:57:34.655Z,21.93
2019-03-23T16:00:04.628Z,21.90
2019-03-23T16:02:36.293Z,23.47
2019-03-23T16:05:06.883Z,22.10
2019-03-23T16:07:36.658Z,22.87
2019-03-23T16:10:06.860Z,21.73
2019-03-23T16:12:37.708Z,22.73
2019-03-23T16:15:10.687Z,22.27
2019-03-23T16:17:41.038Z,22.00
2019-03-23T16:20:10.937Z,23.27
2019-03-23T16:22:40.655Z,23.83
2019-03-23T16:25:10.406Z,25.67
2019-03-23T16:27:40.068Z,24.37
2019-03-23T16:30:10.230Z,22.80
2019-03-23T16:32:39.877Z,23.40
2019-03-23T16:35:10.005Z,22.53
2019-03-23T16:37:41.250Z,21.93
2019-03-23T16:40:10.964Z,23.20
2019-03-23T16:42:45.525Z,22.13
2019-03-23T16:45:12.838Z,23.43
2019-03-23T16:47:42.863Z,23.80
2019-03-23T16:50:12.678Z,21.63
2019-03-23T16:52:42.360Z,22.37
2019-03-23T16:55:12.962Z,23.80
2019-03-23T16:57:42.680Z,23.70
2019-03-23T17:00:12.508Z,25.17
2019-03-23T17:02:42.600Z,26.13
2019-03-23T17:05:12.616Z,24.70
2019-03-23T17:07:42.558Z,24.80
2019-03-23T17:10:12.285Z,26.17
2019-03-23T17:12:42.293Z,25.80
2019-03-23T17:15:12.033Z,27.70
2019-03-23T17:17:42.052Z,25.00
2019-03-23T17:20:12.166Z,26.13
2019-03-23T17:22:43.181Z,26.37
2019-03-23T17:25:13.303Z,26.10
2019-03-23T17:27:43.651Z,27.07
2019-03-23T17:30:13.374Z,29.17
2019-03-23T17:32:43.455Z,28.60
2019-03-23T17:35:13.307Z,26.97
2019-03-23T17:37:43.836Z,28.47
2019-03-23T17:40:13.853Z,28.70
2019-03-23T17:42:43.885Z,29.17
2019-03-23T17:45:14.734Z,27.53
2019-03-23T17:47:45.753Z,29.00
2019-03-23T17:50:15.780Z,27.50
2019-03-23T17:52:45.460Z,28.27
2019-03-23T17:55:15.604Z,29.13
2019-03-23T17:57:45.705Z,30.93
2019-03-23T18:00:15.608Z,29.87
2019-03-23T18:02:46.055Z,30.50
2019-03-23T18:05:16.108Z,29.57
2019-03-23T18:07:46.226Z,32.97
2019-03-23T18:10:15.930Z,34.50
2019-03-23T18:12:45.679Z,35.60
2019-03-23T18:15:15.451Z,34.40
2019-03-23T18:17:45.193Z,35.37
2019-03-23T18:20:15.414Z,37.80
2019-03-23T18:22:45.419Z,37.83
2019-03-23T18:25:15.435Z,39.10
2019-03-23T18:27:46.538Z,38.13
2019-03-23T18:30:39.877Z,39.60
2019-03-23T18:33:09.869Z,39.30
2019-03-23T18:35:40.088Z,42.03
2019-03-23T18:38:09.762Z,45.47
2019-03-23T18:40:39.723Z,45.63
2019-03-23T18:43:10.290Z,45.37
2019-03-23T18:45:40.018Z,47.60
2019-03-23T18:48:09.703Z,47.90
2019-03-23T18:50:42.742Z,46.90
2019-03-23T18:53:13.201Z,47.00
2019-03-23T18:55:43.314Z,47.20
2019-03-23T18:58:13.521Z,45.97
2019-03-23T19:00:44.019Z,45.13
2019-03-23T19:03:13.789Z,45.17
2019-03-23T19:05:43.859Z,47.53
2019-03-23T19:08:13.591Z,45.97
2019-03-23T19:10:43.593Z,45.33
2019-03-23T19:13:14.763Z,49.63
2019-03-23T19:15:44.442Z,48.43
2019-03-23T19:18:14.567Z,50.10
2019-03-23T19:20:44.680Z,49.57
2019-03-23T19:23:14.575Z,48.67
2019-03-23T19:25:44.741Z,49.00
2019-03-23T19:28:14.690Z,48.50
2019-03-23T19:30:44.762Z,48.70
2019-03-23T19:33:14.833Z,50.23
2019-03-23T19:35:44.826Z,51.13
2019-03-23T19:38:14.518Z,52.13
2019-03-23T19:40:44.952Z,50.00
2019-03-23T19:43:15.705Z,49.53
2019-03-23T19:45:46.303Z,55.20
2019-03-23T19:48:16.318Z,57.40
2019-03-23T19:50:46.059Z,54.43
2019-03-23T19:53:16.214Z,54.93
2019-03-23T19:55:46.010Z,53.43
2019-03-23T19:58:16.444Z,54.17
2019-03-23T20:00:46.213Z,52.33
2019-03-23T20:03:16.339Z,54.10
2019-03-23T20:05:46.050Z,54.13
2019-03-23T20:08:15.721Z,55.27
2019-03-23T20:10:45.730Z,55.17
2019-03-23T20:13:15.422Z,53.93
2019-03-23T20:15:45.573Z,57.23
2019-03-23T20:18:15.742Z,58.27
2019-03-23T20:20:46.239Z,58.43
2019-03-23T20:23:15.981Z,60.53
2019-03-23T20:25:45.707Z,60.60
2019-03-23T20:28:15.500Z,57.97
2019-03-23T20:30:46.610Z,59.47
2019-03-23T20:33:19.727Z,67.93
2019-03-23T20:35:48.789Z,65.33
2019-03-23T20:38:18.606Z,66.20
2019-03-23T20:40:48.334Z,62.73
2019-03-23T20:43:18.498Z,65.03
2019-03-23T20:45:48.713Z,64.80
2019-03-23T20:48:19.033Z,68.40
2019-03-23T20:50:49.130Z,67.87
2019-03-23T20:53:19.625Z,71.07
2019-03-23T20:55:49.379Z,69.53
2019-03-23T20:58:19.154Z,73.67
2019-03-23T21:00:49.201Z,82.37
2019-03-23T21:03:19.425Z,78.30
2019-03-23T21:05:49.422Z,83.67
2019-03-23T21:08:19.493Z,83.83
2019-03-23T21:10:49.643Z,82.30
2019-03-23T21:13:20.218Z,89.10
2019-03-23T21:15:50.412Z,86.60
2019-03-23T21:18:21.436Z,85.03
2019-03-23T21:20:51.897Z,81.93
2019-03-23T21:23:22.309Z,84.03
2019-03-23T21:25:52.024Z,89.83
2019-03-23T21:28:21.805Z,87.97
2019-03-23T21:30:53.535Z,90.27
2019-03-23T21:33:23.292Z,96.37
2019-03-23T21:35:53.368Z,93.90
2019-03-23T21:38:23.158Z,94.47
2019-03-23T21:40:53.278Z,89.63
2019-03-23T21:43:23.440Z,95.87
2019-03-23T21:45:53.748Z,92.23
2019-03-23T21:48:23.989Z,93.27
2019-03-23T21:50:54.311Z,97.37
2019-03-23T21:53:24.724Z,99.23
2019-03-23T21:55:54.999Z,102.57
2019-03-23T21:58:24.873Z,97.10
2019-03-23T22:00:55.103Z,102.33
2019-03-23T22:03:25.919Z,96.10
2019-03-23T22:05:55.760Z,98.63
2019-03-23T22:08:27.287Z,104.63
2019-03-23T22:10:58.181Z,105.47
2019-03-23T22:13:28.743Z,109.03
2019-03-23T22:15:58.882Z,112.30
2019-03-23T22:18:29.484Z,116.53
2019-03-23T22:20:59.864Z,113.83
2019-03-23T22:23:30.059Z,117.80
2019-03-23T22:25:59.859Z,114.47
2019-03-23T22:28:29.767Z,118.27
2019-03-23T22:30:59.961Z,122.57
2019-03-23T22:33:30.788Z,120.10
2019-03-23T22:36:01.117Z,118.20
2019-03-23T22:38:31.529Z,121.13
2019-03-23T22:41:01.680Z,119.00
2019-03-23T22:43:31.917Z,121.87
2019-03-23T22:46:02.639Z,124.80
2019-03-23T22:48:32.361Z,122.83
2019-03-23T22:51:02.559Z,122.30
2019-03-23T22:53:33.115Z,122.53
2019-03-23T22:56:03.490Z,122.00
2019-03-23T22:58:33.714Z,120.20
2019-03-23T23:01:04.104Z,122.60
2019-03-23T23:03:34.334Z,118.87
2019-03-23T23:06:04.425Z,118.70
2019-03-23T23:08:34.186Z,122.50
2019-03-23T23:11:06.965Z,120.90
2019-03-23T23:13:37.164Z,122.67
2019-03-23T23:16:07.206Z,120.90
2019-03-23T23:18:37.240Z,119.77
2019-03-23T23:21:06.933Z,117.83
2019-03-23T23:23:36.891Z,123.17
2019-03-23T23:26:06.992Z,120.83
2019-03-23T23:28:37.028Z,116.13
2019-03-23T23:31:07.137Z,114.83
2019-03-23T23:33:36.823Z,116.30
2019-03-23T23:36:06.900Z,117.70
2019-03-23T23:38:36.978Z,116.13
2019-03-23T23:41:06.740Z,111.40
2019-03-23T23:43:36.978Z,112.73
2019-03-23T23:46:06.925Z,108.77
2019-03-23T23:48:37.384Z,110.87
2019-03-23T23:51:07.074Z,113.37
2019-03-23T23:53:37.662Z,118.53
2019-03-23T23:56:07.381Z,123.47
2019-03-23T23:58:37.068Z,117.13
